sensor_id;sensor_type;location;lat;lon;timestamp;pressure;altitude;pressure_sealevel;temperature;humidity
11038;BME280;5572;49.540;11.932;2023-12-20T05:12:02;96805.41;;;5.54;100.00
11038;BME280;5572;49.540;11.932;2023-12-20T05:14:28;96797.56;;;5.74;100.00
11038;BME280;5572;49.540;11.932;2023-12-20T05:16:55;96811.66;;;5.64;100.00
11038;BME280;5572;49.540;11.932;2023-12-20T05:19:22;96823.38;;;5.53;100.00
11038;BME280;5572;49.540;11.932;2023-12-20T05:21:49;96814.72;;;5.73;100.00
11038;BME280;5572;49.540;11.932;2023-12-20T05:24:16;96818.56;;;6.03;100.00
11038;BME280;5572;49.540;11.932;2023-12-20T05:26:42;96827.56;;;5.71;100.00
11038;BME280;5572;49.540;11.932;2023-12-20T05:29:11;96828.31;;;5.66;100.00
11038;BME280;5572;49.540;11.932;2023-12-20T05:31:37;96830.41;;;5.59;100.00
11038;BME280;5572;49.540;11.932;2023-12-20T05:34:04;96832.31;;;5.85;100.00
11038;BME280;5572;49.540;11.932;2023-12-20T05:36:30;96847.34;;;5.86;100.00
11038;BME280;5572;49.540;11.932;2023-12-20T05:38:57;96852.81;;;5.75;100.00
11038;BME280;5572;49.540;11.932;2023-12-20T05:41:24;96859.34;;;5.79;100.00
11038;BME280;5572;49.540;11.932;2023-12-20T05:43:50;96850.16;;;5.75;100.00
11038;BME280;5572;49.540;11.932;2023-12-20T05:46:18;96851.00;;;6.01;100.00
11038;BME280;5572;49.540;11.932;2023-12-20T05:48:44;96864.00;;;5.88;100.00
11038;BME280;5572;49.540;11.932;2023-12-20T05:51:11;96849.97;;;5.81;100.00
11038;BME280;5572;49.540;11.932;2023-12-20T05:53:38;96848.97;;;5.87;100.00
11038;BME280;5572;49.540;11.932;2023-12-20T05:56:05;96866.38;;;5.63;100.00
11038;BME280;5572;49.540;11.932;2023-12-20T05:58:32;96861.13;;;5.73;100.00
11038;BME280;5572;49.540;11.932;2023-12-20T06:00:58;96864.06;;;5.93;100.00
11038;BME280;5572;49.540;11.932;2023-12-20T06:03:26;96867.69;;;5.82;100.00
11038;BME280;5572;49.540;11.932;2023-12-20T06:05:53;96864.88;;;5.72;100.00
11038;BME280;5572;49.540;11.932;2023-12-20T06:08:19;96864.63;;;5.74;100.00
11038;BME280;5572;49.540;11.932;2023-12-20T06:10:46;96879.25;;;5.66;100.00
11038;BME280;5572;49.540;11.932;2023-12-20T06:13:12;96881.91;;;5.83;100.00
11038;BME280;5572;49.540;11.932;2023-12-20T06:15:39;96879.06;;;5.94;100.00
11038;BME280;5572;49.540;11.932;2023-12-20T06:18:06;96874.63;;;5.78;100.00
11038;BME280;5572;49.540;11.932;2023-12-20T06:20:35;96878.16;;;5.62;100.00
11038;BME280;5572;49.540;11.932;2023-12-20T06:23:02;96882.72;;;5.83;100.00
11038;BME280;5572;49.540;11.932;2023-12-20T06:25:29;96885.72;;;5.87;100.00
11038;BME280;5572;49.540;11.932;2023-12-20T06:27:55;96889.91;;;6.04;100.00
11038;BME280;5572;49.540;11.932;2023-12-20T06:30:22;96884.50;;;5.99;100.00
11038;BME280;5572;49.540;11.932;2023-12-20T06:32:50;96889.75;;;5.89;100.00
11038;BME280;5572;49.540;11.932;2023-12-20T06:35:16;96888.44;;;5.92;100.00
11038;BME280;5572;49.540;11.932;2023-12-20T06:37:44;96891.13;;;5.92;100.00
11038;BME280;5572;49.540;11.932;2023-12-20T06:40:11;96881.91;;;5.83;100.00
11038;BME280;5572;49.540;11.932;2023-12-20T06:42:38;96890.38;;;5.75;100.00
11038;BME280;5572;49.540;11.932;2023-12-20T06:45:05;96892.47;;;5.94;100.00
11038;BME280;5572;49.540;11.932;2023-12-20T06:47:32;96900.38;;;5.79;100.00
11038;BME280;5572;49.540;11.932;2023-12-20T06:49:59;96896.50;;;5.70;100.00
11038;BME280;5572;49.540;11.932;2023-12-20T06:52:26;96898.88;;;5.88;100.00
11038;BME280;5572;49.540;11.932;2023-12-20T06:54:54;96890.13;;;5.97;100.00
11038;BME280;5572;49.540;11.932;2023-12-20T06:57:20;96903.09;;;5.84;100.00
11038;BME280;5572;49.540;11.932;2023-12-20T06:59:47;96904.44;;;5.65;100.00
11038;BME280;5572;49.540;11.932;2023-12-20T07:02:14;96905.75;;;5.79;100.00
11038;BME280;5572;49.540;11.932;2023-12-20T07:04:41;96921.94;;;5.89;100.00
11038;BME280;5572;49.540;11.932;2023-12-20T07:07:08;96903.66;;;5.86;100.00
11038;BME280;5572;49.540;11.932;2023-12-20T07:09:34;96919.19;;;5.84;100.00
11038;BME280;5572;49.540;11.932;2023-12-20T07:12:03;96926.09;;;6.01;100.00
11038;BME280;5572;49.540;11.932;2023-12-20T07:14:30;96924.25;;;6.02;100.00
11038;BME280;5572;49.540;11.932;2023-12-20T07:16:56;96917.72;;;5.93;100.00
11038;BME280;5572;49.540;11.932;2023-12-20T07:19:23;96925.66;;;6.09;100.00
11038;BME280;5572;49.540;11.932;2023-12-20T07:21:49;96930.88;;;5.95;100.00
11038;BME280;5572;49.540;11.932;2023-12-20T07:24:16;96932.50;;;5.96;100.00
11038;BME280;5572;49.540;11.932;2023-12-20T07:26:42;96934.59;;;5.94;100.00
11038;BME280;5572;49.540;11.932;2023-12-20T07:29:10;96945.06;;;5.95;100.00
11038;BME280;5572;49.540;11.932;2023-12-20T07:31:37;96939.59;;;5.85;100.00
11038;BME280;5572;49.540;11.932;2023-12-20T07:34:04;96946.13;;;5.94;100.00
11038;BME280;5572;49.540;11.932;2023-12-20T07:36:31;96962.63;;;5.81;100.00
11038;BME280;5572;49.540;11.932;2023-12-20T07:38:57;96958.50;;;5.95;100.00
11038;BME280;5572;49.540;11.932;2023-12-20T07:41:24;96962.19;;;5.89;100.00
11038;BME280;5572;49.540;11.932;2023-12-20T07:43:50;96965.84;;;6.04;100.00
11038;BME280;5572;49.540;11.932;2023-12-20T07:46:20;96978.22;;;6.05;100.00
11038;BME280;5572;49.540;11.932;2023-12-20T07:48:47;96978.72;;;6.02;100.00
11038;BME280;5572;49.540;11.932;2023-12-20T07:51:14;96984.56;;;6.21;100.00
11038;BME280;5572;49.540;11.932;2023-12-20T07:53:41;96995.44;;;5.88;100.00
11038;BME280;5572;49.540;11.932;2023-12-20T07:56:14;96999.31;;;6.18;100.00
11038;BME280;5572;49.540;11.932;2023-12-20T07:58:41;96992.44;;;6.27;100.00
11038;BME280;5572;49.540;11.932;2023-12-20T08:01:08;96988.16;;;6.31;100.00
11038;BME280;5572;49.540;11.932;2023-12-20T08:03:36;96998.47;;;6.18;100.00
11038;BME280;5572;49.540;11.932;2023-12-20T08:06:03;96987.22;;;6.42;100.00
11038;BME280;5572;49.540;11.932;2023-12-20T08:08:29;96994.66;;;6.35;100.00
11038;BME280;5572;49.540;11.932;2023-12-20T08:10:56;96991.78;;;6.20;100.00
11038;BME280;5572;49.540;11.932;2023-12-20T08:13:25;96983.56;;;6.53;100.00
11038;BME280;5572;49.540;11.932;2023-12-20T08:15:52;96988.19;;;6.58;100.00
11038;BME280;5572;49.540;11.932;2023-12-20T08:18:19;96993.91;;;6.66;100.00
11038;BME280;5572;49.540;11.932;2023-12-20T08:20:47;96992.09;;;6.72;100.00
11038;BME280;5572;49.540;11.932;2023-12-20T08:23:15;96982.81;;;6.58;100.00
11038;BME280;5572;49.540;11.932;2023-12-20T08:25:41;96985.03;;;6.66;100.00
11038;BME280;5572;49.540;11.932;2023-12-20T08:28:08;96978.09;;;6.70;100.00
11038;BME280;5572;49.540;11.932;2023-12-20T08:30:35;96991.13;;;6.56;100.00
11038;BME280;5572;49.540;11.932;2023-12-20T08:33:02;96977.16;;;6.85;100.00
11038;BME280;5572;49.540;11.932;2023-12-20T08:35:28;96982.03;;;6.88;100.00
11038;BME280;5572;49.540;11.932;2023-12-20T08:37:56;96986.72;;;7.03;100.00
11038;BME280;5572;49.540;11.932;2023-12-20T08:40:23;96992.75;;;7.20;100.00
11038;BME280;5572;49.540;11.932;2023-12-20T08:42:49;97012.34;;;6.84;100.00
11038;BME280;5572;49.540;11.932;2023-12-20T08:45:16;97015.53;;;6.81;100.00
11038;BME280;5572;49.540;11.932;2023-12-20T08:47:42;96996.41;;;7.04;100.00
11038;BME280;5572;49.540;11.932;2023-12-20T08:50:10;96995.63;;;7.08;100.00
11038;BME280;5572;49.540;11.932;2023-12-20T08:52:37;96996.59;;;6.97;100.00
11038;BME280;5572;49.540;11.932;2023-12-20T08:55:06;96999.19;;;6.82;100.00
11038;BME280;5572;49.540;11.932;2023-12-20T08:57:32;96986.38;;;6.94;100.00
11038;BME280;5572;49.540;11.932;2023-12-20T08:59:59;96983.91;;;6.88;100.00
11038;BME280;5572;49.540;11.932;2023-12-20T09:02:25;96976.88;;;7.13;100.00
11038;BME280;5572;49.540;11.932;2023-12-20T09:04:52;96966.13;;;7.18;100.00
11038;BME280;5572;49.540;11.932;2023-12-20T09:07:22;96962.19;;;7.31;100.00
11038;BME280;5572;49.540;11.932;2023-12-20T09:09:49;96967.84;;;7.29;100.00
11038;BME280;5572;49.540;11.932;2023-12-20T09:12:18;96957.50;;;7.16;100.00
11038;BME280;5572;49.540;11.932;2023-12-20T09:14:45;96950.56;;;7.20;100.00
11038;BME280;5572;49.540;11.932;2023-12-20T09:17:12;96954.97;;;7.00;100.00
11038;BME280;5572;49.540;11.932;2023-12-20T09:19:39;96942.72;;;7.14;100.00
11038;BME280;5572;49.540;11.932;2023-12-20T09:22:06;96962.66;;;6.86;100.00
11038;BME280;5572;49.540;11.932;2023-12-20T09:24:32;96963.09;;;7.05;100.00
11038;BME280;5572;49.540;11.932;2023-12-20T09:26:59;96962.31;;;7.09;100.00
11038;BME280;5572;49.540;11.932;2023-12-20T09:29:27;96957.44;;;7.06;100.00
11038;BME280;5572;49.540;11.932;2023-12-20T09:31:54;96941.16;;;7.18;100.00
11038;BME280;5572;49.540;11.932;2023-12-20T09:34:21;96940.63;;;7.21;100.00
11038;BME280;5572;49.540;11.932;2023-12-20T09:36:47;96942.31;;;6.95;100.00
11038;BME280;5572;49.540;11.932;2023-12-20T09:39:15;96948.44;;;6.91;100.00
11038;BME280;5572;49.540;11.932;2023-12-20T09:41:46;96944.28;;;7.05;100.00
11038;BME280;5572;49.540;11.932;2023-12-20T09:44:16;96950.81;;;6.82;100.00
11038;BME280;5572;49.540;11.932;2023-12-20T09:46:46;96941.03;;;7.03;100.00
11038;BME280;5572;49.540;11.932;2023-12-20T09:49:17;96941.72;;;6.88;100.00
11038;BME280;5572;49.540;11.932;2023-12-20T09:51:46;96952.75;;;6.87;100.00
11038;BME280;5572;49.540;11.932;2023-12-20T09:54:14;96956.38;;;7.07;100.00
11038;BME280;5572;49.540;11.932;2023-12-20T09:56:40;96962.66;;;6.86;100.00
11038;BME280;5572;49.540;11.932;2023-12-20T09:59:07;96965.44;;;6.65;100.00
11038;BME280;5572;49.540;11.932;2023-12-20T10:01:35;96977.25;;;6.95;100.00
11038;BME280;5572;49.540;11.932;2023-12-20T10:04:05;96969.88;;;7.17;100.00
11038;BME280;5572;49.540;11.932;2023-12-20T10:06:34;96975.28;;;6.86;100.00
11038;BME280;5572;49.540;11.932;2023-12-20T10:09:01;96970.81;;;6.96;100.00
11038;BME280;5572;49.540;11.932;2023-12-20T10:11:27;96966.13;;;7.13;100.00
11038;BME280;5572;49.540;11.932;2023-12-20T10:13:59;96979.91;;;6.95;100.00
11038;BME280;5572;49.540;11.932;2023-12-20T10:16:26;96970.59;;;7.03;100.00
11038;BME280;5572;49.540;11.932;2023-12-20T10:18:53;96977.78;;;6.66;100.00
11038;BME280;5572;49.540;11.932;2023-12-20T10:21:21;96966.41;;;6.85;100.00
11038;BME280;5572;49.540;11.932;2023-12-20T10:23:49;96964.75;;;6.80;100.00
11038;BME280;5572;49.540;11.932;2023-12-20T10:26:19;96958.56;;;7.10;100.00
11038;BME280;5572;49.540;11.932;2023-12-20T10:28:46;96964.03;;;7.25;100.00
11038;BME280;5572;49.540;11.932;2023-12-20T10:31:26;96945.25;;;7.81;100.00
11038;BME280;5572;49.540;11.932;2023-12-20T10:33:52;96960.75;;;7.60;100.00
11038;BME280;5572;49.540;11.932;2023-12-20T10:36:20;96939.09;;;7.86;100.00
11038;BME280;5572;49.540;11.932;2023-12-20T10:38:50;96951.44;;;7.77;100.00
11038;BME280;5572;49.540;11.932;2023-12-20T10:41:25;96957.78;;;7.15;100.00
11038;BME280;5572;49.540;11.932;2023-12-20T10:43:56;96936.81;;;7.53;100.00
11038;BME280;5572;49.540;11.932;2023-12-20T10:46:24;96950.44;;;7.42;100.00
11038;BME280;5572;49.540;11.932;2023-12-20T10:48:54;96949.53;;;7.26;100.00
11038;BME280;5572;49.540;11.932;2023-12-20T10:51:23;96962.59;;;7.08;100.00
11038;BME280;5572;49.540;11.932;2023-12-20T10:53:52;96964.34;;;6.92;100.00
11038;BME280;5572;49.540;11.932;2023-12-20T10:56:19;96942.75;;;7.19;100.00
11038;BME280;5572;49.540;11.932;2023-12-20T10:58:46;96948.88;;;7.09;100.00
11038;BME280;5572;49.540;11.932;2023-12-20T11:01:14;96946.41;;;7.03;100.00
11038;BME280;5572;49.540;11.932;2023-12-20T11:03:44;96937.84;;;7.11;100.00
11038;BME280;5572;49.540;11.932;2023-12-20T17:10:00;96856.78;;;5.89;100.00
11038;BME280;5572;49.540;11.932;2023-12-20T17:12:26;96846.75;;;6.05;100.00
11038;BME280;5572;49.540;11.932;2023-12-20T17:14:53;96860.91;;;6.01;100.00
11038;BME280;5572;49.540;11.932;2023-12-20T17:17:20;96856.91;;;6.03;100.00
11038;BME280;5572;49.540;11.932;2023-12-20T17:19:46;96851.28;;;6.05;100.00
11038;BME280;5572;49.540;11.932;2023-12-20T17:22:16;96845.16;;;6.09;100.00
11038;BME280;5572;49.540;11.932;2023-12-20T17:24:43;96844.81;;;6.01;100.00
11038;BME280;5572;49.540;11.932;2023-12-20T17:27:11;96849.03;;;6.18;100.00
11038;BME280;5572;49.540;11.932;2023-12-20T17:29:37;96848.25;;;6.23;100.00
11038;BME280;5572;49.540;11.932;2023-12-20T17:32:04;96846.78;;;6.10;100.00
11038;BME280;5572;49.540;11.932;2023-12-20T17:34:31;96851.91;;;6.12;100.00
11038;BME280;5572;49.540;11.932;2023-12-20T17:36:58;96846.97;;;6.30;100.00
11038;BME280;5572;49.540;11.932;2023-12-20T17:39:25;96860.56;;;5.93;100.00
11038;BME280;5572;49.540;11.932;2023-12-20T17:41:52;96854.41;;;6.23;100.00
11038;BME280;5572;49.540;11.932;2023-12-20T17:44:24;96864.78;;;6.15;100.00
11038;BME280;5572;49.540;11.932;2023-12-20T17:46:51;96868.59;;;6.19;100.00
11038;BME280;5572;49.540;11.932;2023-12-20T17:49:18;96869.81;;;6.33;100.00
11038;BME280;5572;49.540;11.932;2023-12-20T17:51:45;96866.28;;;6.27;100.00
11038;BME280;5572;49.540;11.932;2023-12-20T17:54:11;96873.88;;;6.09;100.00
11038;BME280;5572;49.540;11.932;2023-12-20T17:56:38;96876.09;;;6.17;100.00
11038;BME280;5572;49.540;11.932;2023-12-20T17:59:04;96885.09;;;6.32;100.00
11038;BME280;5572;49.540;11.932;2023-12-20T18:01:32;96894.69;;;6.23;100.00
11038;BME280;5572;49.540;11.932;2023-12-20T18:03:59;96883.25;;;6.33;100.00
11038;BME280;5572;49.540;11.932;2023-12-20T18:06:26;96895.94;;;6.16;100.00
11038;BME280;5572;49.540;11.932;2023-12-20T18:08:53;96892.09;;;6.07;100.00
11038;BME280;5572;49.540;11.932;2023-12-20T18:11:23;96900.72;;;6.09;100.00
11038;BME280;5572;49.540;11.932;2023-12-20T18:13:50;96881.53;;;6.22;100.00
11038;BME280;5572;49.540;11.932;2023-12-20T18:16:17;96882.16;;;6.34;100.00
11038;BME280;5572;49.540;11.932;2023-12-20T18:18:45;96878.75;;;6.12;100.00
11038;BME280;5572;49.540;11.932;2023-12-20T18:21:15;96872.31;;;6.13;100.00
11038;BME280;5572;49.540;11.932;2023-12-20T18:23:41;96876.00;;;6.07;100.00
11038;BME280;5572;49.540;11.932;2023-12-20T18:26:08;96872.25;;;6.34;100.00
11038;BME280;5572;49.540;11.932;2023-12-20T18:28:35;96871.94;;;6.31;100.00
11038;BME280;5572;49.540;11.932;2023-12-20T18:31:01;96887.28;;;6.09;100.00
11038;BME280;5572;49.540;11.932;2023-12-20T18:33:28;96888.31;;;6.03;100.00
11038;BME280;5572;49.540;11.932;2023-12-20T18:35:59;96874.53;;;6.21;100.00
11038;BME280;5572;49.540;11.932;2023-12-20T18:38:26;96876.19;;;6.00;100.00
11038;BME280;5572;49.540;11.932;2023-12-20T18:40:56;96872.34;;;5.92;100.00
11038;BME280;5572;49.540;11.932;2023-12-20T18:43:23;96869.06;;;5.85;100.00
11038;BME280;5572;49.540;11.932;2023-12-20T18:45:54;96861.50;;;6.08;100.00
11038;BME280;5572;49.540;11.932;2023-12-20T18:48:20;96860.72;;;5.81;100.00
11038;BME280;5572;49.540;11.932;2023-12-20T18:50:47;96854.13;;;5.94;100.00
11038;BME280;5572;49.540;11.932;2023-12-20T18:53:15;96855.97;;;5.67;100.00
11038;BME280;5572;49.540;11.932;2023-12-20T18:55:42;96848.94;;;5.82;100.00
11038;BME280;5572;49.540;11.932;2023-12-20T18:58:12;96838.69;;;5.79;100.00
11038;BME280;5572;49.540;11.932;2023-12-20T19:00:39;96833.75;;;5.71;100.00
11038;BME280;5572;49.540;11.932;2023-12-20T19:03:05;96822.34;;;5.81;100.00
11038;BME280;5572;49.540;11.932;2023-12-20T19:05:32;96817.66;;;5.71;100.00
11038;BME280;5572;49.540;11.932;2023-12-20T19:07:59;96819.28;;;5.72;100.00
11038;BME280;5572;49.540;11.932;2023-12-20T19:10:27;96817.84;;;5.65;100.00
11038;BME280;5572;49.540;11.932;2023-12-20T19:12:53;96806.84;;;5.61;100.00
11038;BME280;5572;49.540;11.932;2023-12-20T19:15:20;96801.03;;;5.74;100.00
11038;BME280;5572;49.540;11.932;2023-12-20T19:17:47;96805.78;;;5.62;100.00
11038;BME280;5572;49.540;11.932;2023-12-20T19:20:13;96788.28;;;5.81;100.00
11038;BME280;5572;49.540;11.932;2023-12-20T19:22:40;96803.53;;;5.54;100.00
11038;BME280;5572;49.540;11.932;2023-12-20T19:25:07;96798.81;;;5.66;100.00
11038;BME280;5572;49.540;11.932;2023-12-20T19:27:35;96790.38;;;5.53;100.00
11038;BME280;5572;49.540;11.932;2023-12-20T19:30:03;96782.59;;;5.51;100.00
11038;BME280;5572;49.540;11.932;2023-12-20T19:32:29;96771.91;;;5.56;100.00
11038;BME280;5572;49.540;11.932;2023-12-20T19:34:56;96772.31;;;5.70;100.00
11038;BME280;5572;49.540;11.932;2023-12-20T19:37:23;96778.19;;;5.67;100.00
11038;BME280;5572;49.540;11.932;2023-12-20T19:39:49;96773.13;;;5.70;100.00
11038;BME280;5572;49.540;11.932;2023-12-20T19:42:16;96774.34;;;5.58;100.00
11038;BME280;5572;49.540;11.932;2023-12-20T19:44:44;96772.53;;;5.63;100.00
11038;BME280;5572;49.540;11.932;2023-12-20T19:47:11;96763.56;;;5.53;100.00
11038;BME280;5572;49.540;11.932;2023-12-20T19:49:39;96767.59;;;5.55;100.00
11038;BME280;5572;49.540;11.932;2023-12-20T19:52:07;96766.59;;;5.35;100.00
11038;BME280;5572;49.540;11.932;2023-12-20T19:54:34;96769.22;;;5.56;100.00
11038;BME280;5572;49.540;11.932;2023-12-20T19:57:00;96759.25;;;5.52;100.00
11038;BME280;5572;49.540;11.932;2023-12-20T19:59:27;96771.91;;;5.56;100.00
11038;BME280;5572;49.540;11.932;2023-12-20T20:01:55;96769.00;;;5.58;100.00
11038;BME280;5572;49.540;11.932;2023-12-20T20:04:22;96761.81;;;5.63;100.00
11038;BME280;5572;49.540;11.932;2023-12-20T20:06:50;96762.56;;;5.59;100.00
11038;BME280;5572;49.540;11.932;2023-12-20T20:09:17;96761.19;;;5.56;100.00
11038;BME280;5572;49.540;11.932;2023-12-20T20:11:47;96759.69;;;5.39;100.00
11038;BME280;5572;49.540;11.932;2023-12-20T20:14:14;96760.31;;;5.51;100.00
11038;BME280;5572;49.540;11.932;2023-12-20T20:16:43;96763.47;;;5.43;100.00
11038;BME280;5572;49.540;11.932;2023-12-20T20:19:11;96761.72;;;5.53;100.00
11038;BME280;5572;49.540;11.932;2023-12-20T20:21:38;96760.97;;;5.58;100.00
11038;BME280;5572;49.540;11.932;2023-12-20T20:24:06;96750.16;;;5.53;100.00
11038;BME280;5572;49.540;11.932;2023-12-20T20:26:36;96756.25;;;5.43;100.00
11038;BME280;5572;49.540;11.932;2023-12-20T20:29:02;96748.53;;;5.52;100.00
11038;BME280;5572;49.540;11.932;2023-12-20T20:31:29;96747.31;;;5.64;100.00
11038;BME280;5572;49.540;11.932;2023-12-20T20:33:59;96740.13;;;5.70;100.00
11038;BME280;5572;49.540;11.932;2023-12-20T20:36:27;96752.91;;;5.58;100.00
11038;BME280;5572;49.540;11.932;2023-12-20T20:38:54;96761.19;;;5.56;100.00
11038;BME280;5572;49.540;11.932;2023-12-20T20:41:21;96755.00;;;5.77;100.00
11038;BME280;5572;49.540;11.932;2023-12-20T20:43:47;96754.41;;;5.75;100.00
11038;BME280;5572;49.540;11.932;2023-12-20T20:46:15;96759.03;;;5.53;100.00
11038;BME280;5572;49.540;11.932;2023-12-20T20:48:44;96750.53;;;5.61;100.00
11038;BME280;5572;49.540;11.932;2023-12-20T20:51:11;96758.03;;;5.64;100.00
11038;BME280;5572;49.540;11.932;2023-12-20T20:53:40;96746.16;;;5.55;100.00
11038;BME280;5572;49.540;11.932;2023-12-20T20:56:07;96739.13;;;5.76;100.00
11038;BME280;5572;49.540;11.932;2023-12-20T20:58:34;96732.16;;;5.75;100.00
11038;BME280;5572;49.540;11.932;2023-12-20T21:01:01;96732.06;;;5.65;100.00
11038;BME280;5572;49.540;11.932;2023-12-20T21:03:28;96724.03;;;5.70;100.00
11038;BME280;5572;49.540;11.932;2023-12-20T21:05:54;96736.09;;;5.67;100.00
11038;BME280;5572;49.540;11.932;2023-12-20T21:08:21;96736.28;;;5.61;100.00
11038;BME280;5572;49.540;11.932;2023-12-20T21:10:49;96726.63;;;5.86;100.00
11038;BME280;5572;49.540;11.932;2023-12-20T21:13:22;96729.19;;;5.71;100.00
11038;BME280;5572;49.540;11.932;2023-12-20T21:15:52;96731.69;;;5.78;100.00
11038;BME280;5572;49.540;11.932;2023-12-20T21:18:19;96729.41;;;5.70;100.00
11038;BME280;5572;49.540;11.932;2023-12-20T21:20:46;96720.06;;;5.72;100.00
11038;BME280;5572;49.540;11.932;2023-12-20T21:23:14;96715.69;;;5.93;100.00
11038;BME280;5572;49.540;11.932;2023-12-20T21:25:40;96709.63;;;6.02;100.00
11038;BME280;5572;49.540;11.932;2023-12-20T21:28:10;96711.19;;;5.72;100.00
11038;BME280;5572;49.540;11.932;2023-12-20T21:30:37;96718.38;;;5.88;100.00
11038;BME280;5572;49.540;11.932;2023-12-20T21:33:04;96710.84;;;5.90;100.00
11038;BME280;5572;49.540;11.932;2023-12-20T21:35:31;96706.19;;;6.11;100.00
11038;BME280;5572;49.540;11.932;2023-12-20T21:37:58;96711.81;;;6.10;100.00
11038;BME280;5572;49.540;11.932;2023-12-20T21:40:27;96712.03;;;6.03;100.00
11038;BME280;5572;49.540;11.932;2023-12-20T21:42:54;96709.88;;;5.74;100.00
11038;BME280;5572;49.540;11.932;2023-12-20T21:45:22;96695.56;;;5.90;100.00
11038;BME280;5572;49.540;11.932;2023-12-20T21:47:49;96707.19;;;5.74;100.00
11038;BME280;5572;49.540;11.932;2023-12-20T21:50:17;96679.25;;;5.97;100.00
11038;BME280;5572;49.540;11.932;2023-12-20T21:52:43;96688.69;;;6.04;100.00
11038;BME280;5572;49.540;11.932;2023-12-20T21:55:10;96697.97;;;5.87;100.00
11038;BME280;5572;49.540;11.932;2023-12-20T21:57:37;96696.16;;;5.97;100.00
11038;BME280;5572;49.540;11.932;2023-12-20T22:00:05;96689.81;;;6.08;100.00
11038;BME280;5572;49.540;11.932;2023-12-20T22:02:34;96692.13;;;5.95;100.00
11038;BME280;5572;49.540;11.932;2023-12-20T22:05:00;96684.59;;;5.65;100.00
11038;BME280;5572;49.540;11.932;2023-12-20T22:07:27;96683.84;;;6.01;100.00
11038;BME280;5572;49.540;11.932;2023-12-20T22:09:54;96691.28;;;5.94;100.00
11038;BME280;5572;49.540;11.932;2023-12-20T22:12:21;96693.94;;;5.89;100.00
11038;BME280;5572;49.540;11.932;2023-12-20T22:14:47;96681.97;;;6.01;100.00
11038;BME280;5572;49.540;11.932;2023-12-20T22:17:15;96689.16;;;5.91;100.00
11038;BME280;5572;49.540;11.932;2023-12-20T22:19:43;96667.06;;;5.84;100.00
11038;BME280;5572;49.540;11.932;2023-12-20T22:22:10;96673.25;;;5.85;100.00
11038;BME280;5572;49.540;11.932;2023-12-20T22:24:38;96672.69;;;5.78;100.00
11038;BME280;5572;49.540;11.932;2023-12-20T22:27:05;96659.84;;;5.85;100.00
11038;BME280;5572;49.540;11.932;2023-12-20T22:29:32;96649.94;;;5.85;100.00
11038;BME280;5572;49.540;11.932;2023-12-20T22:31:59;96647.81;;;5.87;100.00
11038;BME280;5572;49.540;11.932;2023-12-20T22:34:25;96639.75;;;5.87;100.00
11038;BME280;5572;49.540;11.932;2023-12-20T22:36:54;96635.59;;;6.06;100.00
11038;BME280;5572;49.540;11.932;2023-12-20T22:39:20;96643.34;;;6.02;100.00
11038;BME280;5572;49.540;11.932;2023-12-20T22:41:48;96634.22;;;6.03;100.00
11038;BME280;5572;49.540;11.932;2023-12-20T22:44:15;96643.00;;;5.94;100.00
11038;BME280;5572;49.540;11.932;2023-12-20T22:46:42;96636.78;;;5.84;100.00
11038;BME280;5572;49.540;11.932;2023-12-20T22:49:09;96625.38;;;6.03;100.00
11038;BME280;5572;49.540;11.932;2023-12-20T22:51:35;96630.38;;;5.90;100.00
11038;BME280;5572;49.540;11.932;2023-12-20T22:54:04;96644.81;;;5.79;100.00
11038;BME280;5572;49.540;11.932;2023-12-20T22:56:31;96619.72;;;5.99;100.00
11038;BME280;5572;49.540;11.932;2023-12-20T22:58:57;96621.25;;;5.86;100.00
11038;BME280;5572;49.540;11.932;2023-12-20T23:01:24;96609.81;;;6.00;100.00
11038;BME280;5572;49.540;11.932;2023-12-20T23:03:51;96606.50;;;5.83;100.00
11038;BME280;5572;49.540;11.932;2023-12-20T23:06:18;96606.28;;;5.95;100.00
11038;BME280;5572;49.540;11.932;2023-12-20T23:08:45;96602.56;;;6.00;100.00
11038;BME280;5572;49.540;11.932;2023-12-20T23:11:13;96596.03;;;5.87;100.00
11038;BME280;5572;49.540;11.932;2023-12-20T23:13:40;96592.53;;;5.86;100.00
11038;BME280;5572;49.540;11.932;2023-12-20T23:16:06;96575.72;;;5.96;100.00
11038;BME280;5572;49.540;11.932;2023-12-20T23:18:33;96586.66;;;5.89;100.00
11038;BME280;5572;49.540;11.932;2023-12-20T23:21:00;96561.53;;;6.05;100.00
11038;BME280;5572;49.540;11.932;2023-12-20T23:23:26;96573.53;;;5.88;100.00
11038;BME280;5572;49.540;11.932;2023-12-20T23:25:53;96561.25;;;6.01;100.00
11038;BME280;5572;49.540;11.932;2023-12-20T23:28:20;96555.31;;;5.95;100.00
11038;BME280;5572;49.540;11.932;2023-12-20T23:30:47;96531.22;;;6.09;100.00
11038;BME280;5572;49.540;11.932;2023-12-20T23:33:13;96525.53;;;5.96;100.00
11038;BME280;5572;49.540;11.932;2023-12-20T23:35:41;96533.81;;;5.85;100.00
11038;BME280;5572;49.540;11.932;2023-12-20T23:38:07;96522.91;;;6.01;100.00
11038;BME280;5572;49.540;11.932;2023-12-20T23:40:34;96523.44;;;6.08;100.00
11038;BME280;5572;49.540;11.932;2023-12-20T23:43:01;96533.66;;;6.11;100.00
11038;BME280;5572;49.540;11.932;2023-12-20T23:45:28;96535.19;;;5.92;100.00
11038;BME280;5572;49.540;11.932;2023-12-20T23:47:55;96537.03;;;5.87;100.00
11038;BME280;5572;49.540;11.932;2023-12-20T23:50:21;96521.81;;;6.02;100.00
11038;BME280;5572;49.540;11.932;2023-12-20T23:52:48;96520.97;;;5.92;100.00
11038;BME280;5572;49.540;11.932;2023-12-20T23:55:15;96510.03;;;6.03;100.00
11038;BME280;5572;49.540;11.932;2023-12-20T23:57:42;96513.28;;;6.15;100.00
